Fort Russell, Illinois
Current Conditions -  °F | °C
As of 4:50 PM on Tuesday 25 Nov 2014 (Local Time) from KALN Reporting Station
Clear Clear  
Wind Chill: 29°   Ceiling: Unl
Heat Index: 34°   Visibility: 10mi
Dew Point: 25°   Wind: 6mph
Humidity: 70%   Direction: 290°WNW
Pressure: 30.16"   Gusts: NA
Location:  38.9045°N, 90.0089°W
Report Text: KALN 252250Z 29005KT 10SM SKC 01/M04 A3016
Loading
Personal Weather Stations






























Interactive Weather Map New forecast layout! Learn more

10-Day Weather Forecast

Advertisements
Track Severe Weather on mobile